sensor_id;sensor_type;location;lat;lon;timestamp;P1;durP1;ratioP1;P2;durP2;ratioP2
4547;SDS011;2286;51.570;7.090;2023-09-18T00:00:29;10.80;;;9.80;;
4547;SDS011;2286;51.570;7.090;2023-09-18T00:02:57;10.82;;;9.65;;
4547;SDS011;2286;51.570;7.090;2023-09-18T00:05:27;10.70;;;9.70;;
4547;SDS011;2286;51.570;7.090;2023-09-18T00:07:54;11.52;;;9.60;;
4547;SDS011;2286;51.570;7.090;2023-09-18T00:10:22;11.07;;;9.98;;
4547;SDS011;2286;51.570;7.090;2023-09-18T00:12:49;11.53;;;9.83;;
4547;SDS011;2286;51.570;7.090;2023-09-18T00:15:16;11.30;;;10.20;;
4547;SDS011;2286;51.570;7.090;2023-09-18T00:17:43;10.73;;;9.73;;
4547;SDS011;2286;51.570;7.090;2023-09-18T00:20:10;10.15;;;9.15;;
4547;SDS011;2286;51.570;7.090;2023-09-18T00:22:38;10.82;;;9.90;;
4547;SDS011;2286;51.570;7.090;2023-09-18T00:25:05;10.52;;;9.63;;
4547;SDS011;2286;51.570;7.090;2023-09-18T00:27:34;11.07;;;10.00;;
4547;SDS011;2286;51.570;7.090;2023-09-18T00:30:01;10.70;;;9.80;;
4547;SDS011;2286;51.570;7.090;2023-09-18T00:32:28;10.75;;;9.65;;
4547;SDS011;2286;51.570;7.090;2023-09-18T00:34:56;10.77;;;9.68;;
4547;SDS011;2286;51.570;7.090;2023-09-18T00:37:23;10.67;;;9.67;;
4547;SDS011;2286;51.570;7.090;2023-09-18T00:39:49;9.80;;;8.90;;
4547;SDS011;2286;51.570;7.090;2023-09-18T00:42:16;10.10;;;9.10;;
4547;SDS011;2286;51.570;7.090;2023-09-18T00:44:45;9.90;;;8.90;;
4547;SDS011;2286;51.570;7.090;2023-09-18T00:47:11;10.65;;;9.40;;
4547;SDS011;2286;51.570;7.090;2023-09-18T00:49:40;10.40;;;9.10;;
4547;SDS011;2286;51.570;7.090;2023-09-18T00:52:09;10.63;;;9.63;;
4547;SDS011;2286;51.570;7.090;2023-09-18T00:54:37;10.75;;;9.80;;
4547;SDS011;2286;51.570;7.090;2023-09-18T00:57:06;10.07;;;9.18;;
4547;SDS011;2286;51.570;7.090;2023-09-18T00:59:35;10.77;;;9.50;;
4547;SDS011;2286;51.570;7.090;2023-09-18T01:02:03;10.50;;;9.50;;
4547;SDS011;2286;51.570;7.090;2023-09-18T01:04:30;10.93;;;9.95;;
4547;SDS011;2286;51.570;7.090;2023-09-18T01:06:59;10.52;;;9.45;;
4547;SDS011;2286;51.570;7.090;2023-09-18T01:09:28;10.88;;;9.98;;
4547;SDS011;2286;51.570;7.090;2023-09-18T01:11:59;10.77;;;9.77;;
4547;SDS011;2286;51.570;7.090;2023-09-18T01:14:31;10.48;;;9.40;;
4547;SDS011;2286;51.570;7.090;2023-09-18T01:17:03;10.40;;;9.40;;
4547;SDS011;2286;51.570;7.090;2023-09-18T01:19:39;10.52;;;9.63;;
4547;SDS011;2286;51.570;7.090;2023-09-18T01:22:07;10.20;;;9.25;;
4547;SDS011;2286;51.570;7.090;2023-09-18T01:24:37;10.10;;;9.10;;
4547;SDS011;2286;51.570;7.090;2023-09-18T01:27:06;10.25;;;9.25;;
4547;SDS011;2286;51.570;7.090;2023-09-18T01:29:35;10.50;;;9.50;;
4547;SDS011;2286;51.570;7.090;2023-09-18T01:32:02;10.68;;;9.60;;
4547;SDS011;2286;51.570;7.090;2023-09-18T01:34:30;12.88;;;9.30;;
4547;SDS011;2286;51.570;7.090;2023-09-18T01:37:01;10.85;;;9.75;;
4547;SDS011;2286;51.570;7.090;2023-09-18T01:39:30;9.77;;;8.77;;
4547;SDS011;2286;51.570;7.090;2023-09-18T01:42:00;10.30;;;9.30;;
4547;SDS011;2286;51.570;7.090;2023-09-18T01:44:29;11.07;;;9.27;;
4547;SDS011;2286;51.570;7.090;2023-09-18T01:46:57;9.80;;;8.80;;
4547;SDS011;2286;51.570;7.090;2023-09-18T01:49:28;10.02;;;9.13;;
4547;SDS011;2286;51.570;7.090;2023-09-18T01:51:55;9.30;;;8.50;;
4547;SDS011;2286;51.570;7.090;2023-09-18T01:54:22;10.00;;;9.10;;
4547;SDS011;2286;51.570;7.090;2023-09-18T01:56:49;10.00;;;9.00;;
4547;SDS011;2286;51.570;7.090;2023-09-18T01:59:18;10.57;;;8.77;;
4547;SDS011;2286;51.570;7.090;2023-09-18T02:01:45;13.02;;;9.00;;
4547;SDS011;2286;51.570;7.090;2023-09-18T02:04:12;12.25;;;9.45;;
4547;SDS011;2286;51.570;7.090;2023-09-18T02:06:37;9.32;;;8.32;;
4547;SDS011;2286;51.570;7.090;2023-09-18T02:09:05;9.50;;;8.60;;
4547;SDS011;2286;51.570;7.090;2023-09-18T02:11:33;10.50;;;9.50;;
4547;SDS011;2286;51.570;7.090;2023-09-18T02:14:02;13.52;;;9.48;;
4547;SDS011;2286;51.570;7.090;2023-09-18T02:16:32;9.93;;;8.80;;
4547;SDS011;2286;51.570;7.090;2023-09-18T02:18:59;9.70;;;8.80;;
4547;SDS011;2286;51.570;7.090;2023-09-18T02:21:26;10.55;;;9.45;;
4547;SDS011;2286;51.570;7.090;2023-09-18T02:23:53;10.10;;;9.20;;
4547;SDS011;2286;51.570;7.090;2023-09-18T02:26:20;9.43;;;8.63;;
4547;SDS011;2286;51.570;7.090;2023-09-18T02:28:49;9.93;;;8.60;;
4547;SDS011;2286;51.570;7.090;2023-09-18T02:31:17;10.20;;;9.30;;
4547;SDS011;2286;51.570;7.090;2023-09-18T02:33:46;9.68;;;8.93;;
4547;SDS011;2286;51.570;7.090;2023-09-18T02:36:13;10.20;;;9.20;;
4547;SDS011;2286;51.570;7.090;2023-09-18T02:38:40;10.68;;;8.70;;
4547;SDS011;2286;51.570;7.090;2023-09-18T02:41:08;9.60;;;8.60;;
4547;SDS011;2286;51.570;7.090;2023-09-18T02:43:35;10.40;;;9.40;;
4547;SDS011;2286;51.570;7.090;2023-09-18T02:46:03;10.43;;;9.30;;
4547;SDS011;2286;51.570;7.090;2023-09-18T02:48:30;10.25;;;8.60;;
4547;SDS011;2286;51.570;7.090;2023-09-18T02:50:59;9.87;;;8.97;;
4547;SDS011;2286;51.570;7.090;2023-09-18T02:53:26;9.65;;;8.60;;
4547;SDS011;2286;51.570;7.090;2023-09-18T02:55:55;10.15;;;9.15;;
4547;SDS011;2286;51.570;7.090;2023-09-18T02:58:23;10.18;;;8.95;;
4547;SDS011;2286;51.570;7.090;2023-09-18T03:00:51;10.27;;;8.77;;
4547;SDS011;2286;51.570;7.090;2023-09-18T03:03:19;10.30;;;9.32;;
4547;SDS011;2286;51.570;7.090;2023-09-18T03:05:46;10.50;;;8.40;;
4547;SDS011;2286;51.570;7.090;2023-09-18T03:08:15;10.17;;;8.90;;
4547;SDS011;2286;51.570;7.090;2023-09-18T03:10:42;9.90;;;8.90;;
4547;SDS011;2286;51.570;7.090;2023-09-18T03:13:10;10.40;;;9.27;;
4547;SDS011;2286;51.570;7.090;2023-09-18T03:15:40;10.00;;;9.00;;
4547;SDS011;2286;51.570;7.090;2023-09-18T03:18:12;9.60;;;8.70;;
4547;SDS011;2286;51.570;7.090;2023-09-18T03:20:39;9.10;;;8.30;;
4547;SDS011;2286;51.570;7.090;2023-09-18T03:23:07;9.85;;;8.85;;
4547;SDS011;2286;51.570;7.090;2023-09-18T03:25:35;9.88;;;8.73;;
4547;SDS011;2286;51.570;7.090;2023-09-18T03:28:03;10.30;;;8.70;;
4547;SDS011;2286;51.570;7.090;2023-09-18T03:30:31;9.68;;;8.77;;
4547;SDS011;2286;51.570;7.090;2023-09-18T03:32:58;10.02;;;8.82;;
4547;SDS011;2286;51.570;7.090;2023-09-18T03:35:28;10.35;;;9.30;;
4547;SDS011;2286;51.570;7.090;2023-09-18T03:37:57;9.40;;;8.60;;
4547;SDS011;2286;51.570;7.090;2023-09-18T03:40:24;9.40;;;8.50;;
4547;SDS011;2286;51.570;7.090;2023-09-18T03:42:52;9.70;;;8.73;;
4547;SDS011;2286;51.570;7.090;2023-09-18T03:45:19;9.50;;;8.70;;
4547;SDS011;2286;51.570;7.090;2023-09-18T03:47:47;9.30;;;8.40;;
4547;SDS011;2286;51.570;7.090;2023-09-18T03:50:15;9.25;;;8.40;;
4547;SDS011;2286;51.570;7.090;2023-09-18T03:52:42;11.25;;;8.35;;
4547;SDS011;2286;51.570;7.090;2023-09-18T03:55:09;9.52;;;8.63;;
4547;SDS011;2286;51.570;7.090;2023-09-18T03:57:36;10.55;;;9.00;;
4547;SDS011;2286;51.570;7.090;2023-09-18T04:00:06;10.38;;;9.02;;
4547;SDS011;2286;51.570;7.090;2023-09-18T04:02:34;9.73;;;8.70;;
4547;SDS011;2286;51.570;7.090;2023-09-18T04:05:01;10.07;;;8.80;;
4547;SDS011;2286;51.570;7.090;2023-09-18T04:07:30;9.80;;;8.82;;
4547;SDS011;2286;51.570;7.090;2023-09-18T04:09:57;9.70;;;8.70;;
4547;SDS011;2286;51.570;7.090;2023-09-18T04:12:24;9.30;;;8.40;;
4547;SDS011;2286;51.570;7.090;2023-09-18T04:14:51;10.05;;;9.02;;
4547;SDS011;2286;51.570;7.090;2023-09-18T04:17:20;9.55;;;8.48;;
4547;SDS011;2286;51.570;7.090;2023-09-18T04:19:47;9.63;;;8.73;;
4547;SDS011;2286;51.570;7.090;2023-09-18T04:22:14;9.57;;;8.63;;
4547;SDS011;2286;51.570;7.090;2023-09-18T04:24:41;9.95;;;8.75;;
4547;SDS011;2286;51.570;7.090;2023-09-18T04:27:08;10.10;;;9.10;;
4547;SDS011;2286;51.570;7.090;2023-09-18T04:29:35;8.70;;;7.90;;
4547;SDS011;2286;51.570;7.090;2023-09-18T04:32:03;10.67;;;9.23;;
4547;SDS011;2286;51.570;7.090;2023-09-18T04:34:32;8.93;;;7.97;;
4547;SDS011;2286;51.570;7.090;2023-09-18T04:37:00;9.35;;;7.82;;
4547;SDS011;2286;51.570;7.090;2023-09-18T04:39:28;8.52;;;6.93;;
4547;SDS011;2286;51.570;7.090;2023-09-18T04:41:59;8.20;;;7.40;;
4547;SDS011;2286;51.570;7.090;2023-09-18T04:44:29;8.07;;;7.10;;
4547;SDS011;2286;51.570;7.090;2023-09-18T04:46:56;7.65;;;6.70;;
4547;SDS011;2286;51.570;7.090;2023-09-18T04:49:24;8.77;;;6.80;;
4547;SDS011;2286;51.570;7.090;2023-09-18T04:51:52;7.20;;;5.63;;
4547;SDS011;2286;51.570;7.090;2023-09-18T04:54:20;8.65;;;5.75;;
4547;SDS011;2286;51.570;7.090;2023-09-18T04:56:47;5.95;;;5.35;;
4547;SDS011;2286;51.570;7.090;2023-09-18T04:59:14;8.90;;;5.80;;
4547;SDS011;2286;51.570;7.090;2023-09-18T05:01:41;11.07;;;5.10;;
4547;SDS011;2286;51.570;7.090;2023-09-18T05:04:09;9.40;;;5.27;;
4547;SDS011;2286;51.570;7.090;2023-09-18T05:06:37;8.50;;;5.40;;
4547;SDS011;2286;51.570;7.090;2023-09-18T05:09:07;12.52;;;5.60;;
4547;SDS011;2286;51.570;7.090;2023-09-18T05:11:34;7.72;;;4.95;;
4547;SDS011;2286;51.570;7.090;2023-09-18T05:14:01;6.93;;;4.85;;
4547;SDS011;2286;51.570;7.090;2023-09-18T05:16:28;11.47;;;4.73;;
4547;SDS011;2286;51.570;7.090;2023-09-18T05:18:55;11.80;;;5.20;;
4547;SDS011;2286;51.570;7.090;2023-09-18T05:21:22;7.55;;;4.60;;
4547;SDS011;2286;51.570;7.090;2023-09-18T05:23:52;8.57;;;4.70;;
4547;SDS011;2286;51.570;7.090;2023-09-18T05:26:21;9.63;;;4.87;;
4547;SDS011;2286;51.570;7.090;2023-09-18T05:28:49;12.07;;;4.20;;
4547;SDS011;2286;51.570;7.090;2023-09-18T05:31:18;4.97;;;4.47;;
4547;SDS011;2286;51.570;7.090;2023-09-18T05:33:46;7.57;;;3.90;;
4547;SDS011;2286;51.570;7.090;2023-09-18T05:36:13;6.27;;;3.57;;
4547;SDS011;2286;51.570;7.090;2023-09-18T05:38:40;5.07;;;3.50;;
4547;SDS011;2286;51.570;7.090;2023-09-18T05:41:08;12.23;;;4.77;;
4547;SDS011;2286;51.570;7.090;2023-09-18T05:43:37;8.13;;;4.10;;
4547;SDS011;2286;51.570;7.090;2023-09-18T05:46:04;8.30;;;3.80;;
4547;SDS011;2286;51.570;7.090;2023-09-18T05:48:31;6.93;;;3.87;;
4547;SDS011;2286;51.570;7.090;2023-09-18T05:50:58;9.90;;;4.57;;
4547;SDS011;2286;51.570;7.090;2023-09-18T05:53:25;4.93;;;4.40;;
4547;SDS011;2286;51.570;7.090;2023-09-18T05:55:52;8.90;;;4.27;;
4547;SDS011;2286;51.570;7.090;2023-09-18T05:58:19;11.10;;;4.53;;
4547;SDS011;2286;51.570;7.090;2023-09-18T06:00:51;10.90;;;4.80;;
4547;SDS011;2286;51.570;7.090;2023-09-18T06:03:18;12.70;;;3.93;;
4547;SDS011;2286;51.570;7.090;2023-09-18T06:05:45;8.33;;;4.17;;
4547;SDS011;2286;51.570;7.090;2023-09-18T06:08:13;9.30;;;5.40;;
4547;SDS011;2286;51.570;7.090;2023-09-18T06:10:40;14.87;;;5.50;;
4547;SDS011;2286;51.570;7.090;2023-09-18T06:13:07;6.13;;;3.83;;
4547;SDS011;2286;51.570;7.090;2023-09-18T06:15:34;8.47;;;5.07;;
4547;SDS011;2286;51.570;7.090;2023-09-18T06:18:03;11.33;;;3.90;;
4547;SDS011;2286;51.570;7.090;2023-09-18T06:20:31;8.00;;;4.60;;
4547;SDS011;2286;51.570;7.090;2023-09-18T06:22:58;9.13;;;4.20;;
4547;SDS011;2286;51.570;7.090;2023-09-18T06:25:25;8.50;;;4.50;;
4547;SDS011;2286;51.570;7.090;2023-09-18T06:27:52;9.20;;;5.10;;
4547;SDS011;2286;51.570;7.090;2023-09-18T06:30:19;11.27;;;4.10;;
4547;SDS011;2286;51.570;7.090;2023-09-18T06:32:46;8.30;;;4.33;;
4547;SDS011;2286;51.570;7.090;2023-09-18T06:35:15;14.77;;;4.53;;
4547;SDS011;2286;51.570;7.090;2023-09-18T06:37:42;7.63;;;4.30;;
4547;SDS011;2286;51.570;7.090;2023-09-18T06:40:09;6.63;;;4.20;;
4547;SDS011;2286;51.570;7.090;2023-09-18T06:42:36;6.13;;;3.93;;
4547;SDS011;2286;51.570;7.090;2023-09-18T06:45:04;12.80;;;4.03;;
4547;SDS011;2286;51.570;7.090;2023-09-18T06:47:32;5.93;;;3.53;;
4547;SDS011;2286;51.570;7.090;2023-09-18T06:50:00;5.50;;;3.77;;
4547;SDS011;2286;51.570;7.090;2023-09-18T06:52:30;5.07;;;3.27;;
4547;SDS011;2286;51.570;7.090;2023-09-18T06:54:57;5.40;;;3.70;;
4547;SDS011;2286;51.570;7.090;2023-09-18T06:57:24;7.13;;;3.37;;
4547;SDS011;2286;51.570;7.090;2023-09-18T06:59:52;6.72;;;3.70;;
4547;SDS011;2286;51.570;7.090;2023-09-18T07:02:20;7.00;;;3.20;;
4547;SDS011;2286;51.570;7.090;2023-09-18T07:04:48;5.90;;;2.70;;
4547;SDS011;2286;51.570;7.090;2023-09-18T07:07:15;8.47;;;3.23;;
4547;SDS011;2286;51.570;7.090;2023-09-18T07:09:44;4.97;;;3.57;;
4547;SDS011;2286;51.570;7.090;2023-09-18T07:12:11;4.67;;;2.90;;
4547;SDS011;2286;51.570;7.090;2023-09-18T07:14:38;11.63;;;3.30;;
4547;SDS011;2286;51.570;7.090;2023-09-18T07:17:05;6.90;;;2.70;;
4547;SDS011;2286;51.570;7.090;2023-09-18T07:19:32;6.87;;;3.53;;
4547;SDS011;2286;51.570;7.090;2023-09-18T07:21:59;7.50;;;2.70;;
4547;SDS011;2286;51.570;7.090;2023-09-18T07:24:25;5.20;;;2.80;;
4547;SDS011;2286;51.570;7.090;2023-09-18T07:26:54;4.80;;;2.63;;
4547;SDS011;2286;51.570;7.090;2023-09-18T07:29:23;4.50;;;3.07;;
4547;SDS011;2286;51.570;7.090;2023-09-18T07:31:51;4.43;;;2.97;;
4547;SDS011;2286;51.570;7.090;2023-09-18T07:34:18;3.60;;;2.17;;
4547;SDS011;2286;51.570;7.090;2023-09-18T07:36:45;4.90;;;2.43;;
4547;SDS011;2286;51.570;7.090;2023-09-18T07:39:12;5.77;;;3.03;;
4547;SDS011;2286;51.570;7.090;2023-09-18T07:41:40;3.40;;;2.40;;
4547;SDS011;2286;51.570;7.090;2023-09-18T07:44:08;7.33;;;3.03;;
4547;SDS011;2286;51.570;7.090;2023-09-18T07:46:35;5.40;;;2.50;;
4547;SDS011;2286;51.570;7.090;2023-09-18T07:49:02;6.50;;;2.77;;
4547;SDS011;2286;51.570;7.090;2023-09-18T07:51:29;3.90;;;2.40;;
4547;SDS011;2286;51.570;7.090;2023-09-18T07:53:56;6.13;;;2.30;;
4547;SDS011;2286;51.570;7.090;2023-09-18T07:56:23;2.90;;;2.30;;
4547;SDS011;2286;51.570;7.090;2023-09-18T07:58:50;4.80;;;2.30;;
4547;SDS011;2286;51.570;7.090;2023-09-18T08:01:19;4.60;;;2.60;;
4547;SDS011;2286;51.570;7.090;2023-09-18T08:03:47;3.80;;;2.07;;
4547;SDS011;2286;51.570;7.090;2023-09-18T08:06:15;5.37;;;2.73;;
4547;SDS011;2286;51.570;7.090;2023-09-18T08:08:44;3.83;;;2.30;;
4547;SDS011;2286;51.570;7.090;2023-09-18T08:11:11;10.50;;;3.23;;
4547;SDS011;2286;51.570;7.090;2023-09-18T08:13:39;5.10;;;2.03;;
4547;SDS011;2286;51.570;7.090;2023-09-18T08:16:06;5.83;;;2.63;;
4547;SDS011;2286;51.570;7.090;2023-09-18T08:18:35;4.97;;;2.50;;
4547;SDS011;2286;51.570;7.090;2023-09-18T08:21:06;6.90;;;2.17;;
4547;SDS011;2286;51.570;7.090;2023-09-18T08:23:34;6.13;;;2.27;;
4547;SDS011;2286;51.570;7.090;2023-09-18T08:26:01;3.00;;;1.40;;
4547;SDS011;2286;51.570;7.090;2023-09-18T08:28:29;2.83;;;1.93;;
4547;SDS011;2286;51.570;7.090;2023-09-18T08:30:56;4.40;;;2.17;;
4547;SDS011;2286;51.570;7.090;2023-09-18T08:33:23;2.93;;;1.70;;
4547;SDS011;2286;51.570;7.090;2023-09-18T08:35:52;5.17;;;2.30;;
4547;SDS011;2286;51.570;7.090;2023-09-18T08:38:19;7.63;;;1.87;;
4547;SDS011;2286;51.570;7.090;2023-09-18T08:40:46;4.50;;;1.80;;
4547;SDS011;2286;51.570;7.090;2023-09-18T08:43:14;3.83;;;1.57;;
4547;SDS011;2286;51.570;7.090;2023-09-18T08:45:45;3.03;;;1.63;;
4547;SDS011;2286;51.570;7.090;2023-09-18T08:48:15;2.97;;;1.40;;
4547;SDS011;2286;51.570;7.090;2023-09-18T08:50:43;3.30;;;1.60;;
4547;SDS011;2286;51.570;7.090;2023-09-18T08:53:13;2.33;;;1.57;;
4547;SDS011;2286;51.570;7.090;2023-09-18T08:55:40;3.97;;;1.53;;
4547;SDS011;2286;51.570;7.090;2023-09-18T08:58:07;4.27;;;2.03;;
4547;SDS011;2286;51.570;7.090;2023-09-18T09:00:36;2.00;;;1.60;;
4547;SDS011;2286;51.570;7.090;2023-09-18T09:03:03;2.60;;;1.50;;
4547;SDS011;2286;51.570;7.090;2023-09-18T09:05:31;1.50;;;1.40;;
4547;SDS011;2286;51.570;7.090;2023-09-18T09:07:58;4.10;;;1.60;;
4547;SDS011;2286;51.570;7.090;2023-09-18T09:10:27;3.67;;;2.10;;
4547;SDS011;2286;51.570;7.090;2023-09-18T09:12:55;1.47;;;1.10;;
4547;SDS011;2286;51.570;7.090;2023-09-18T09:15:25;2.10;;;1.13;;
4547;SDS011;2286;51.570;7.090;2023-09-18T09:18:01;8.07;;;1.60;;
4547;SDS011;2286;51.570;7.090;2023-09-18T09:20:30;3.97;;;1.60;;
4547;SDS011;2286;51.570;7.090;2023-09-18T09:22:59;6.30;;;1.13;;
4547;SDS011;2286;51.570;7.090;2023-09-18T09:25:29;1.70;;;1.60;;
4547;SDS011;2286;51.570;7.090;2023-09-18T09:27:58;5.53;;;1.57;;
4547;SDS011;2286;51.570;7.090;2023-09-18T09:30:26;3.13;;;1.57;;
4547;SDS011;2286;51.570;7.090;2023-09-18T09:32:55;4.87;;;1.40;;
4547;SDS011;2286;51.570;7.090;2023-09-18T09:35:24;1.87;;;1.20;;
4547;SDS011;2286;51.570;7.090;2023-09-18T09:37:56;1.90;;;1.30;;
4547;SDS011;2286;51.570;7.090;2023-09-18T09:40:26;5.20;;;2.20;;
4547;SDS011;2286;51.570;7.090;2023-09-18T09:42:56;5.33;;;1.40;;
4547;SDS011;2286;51.570;7.090;2023-09-18T09:45:27;1.57;;;1.17;;
4547;SDS011;2286;51.570;7.090;2023-09-18T09:47:56;2.97;;;1.20;;
4547;SDS011;2286;51.570;7.090;2023-09-18T09:50:23;5.50;;;1.50;;
4547;SDS011;2286;51.570;7.090;2023-09-18T09:52:52;3.80;;;1.23;;
4547;SDS011;2286;51.570;7.090;2023-09-18T09:55:24;3.27;;;1.20;;
4547;SDS011;2286;51.570;7.090;2023-09-18T09:57:54;2.10;;;1.50;;
4547;SDS011;2286;51.570;7.090;2023-09-18T10:00:29;1.90;;;1.40;;
4547;SDS011;2286;51.570;7.090;2023-09-18T10:03:02;1.97;;;1.30;;
4547;SDS011;2286;51.570;7.090;2023-09-18T10:05:32;1.57;;;1.47;;
4547;SDS011;2286;51.570;7.090;2023-09-18T10:08:02;5.40;;;1.90;;
4547;SDS011;2286;51.570;7.090;2023-09-18T10:10:33;2.50;;;1.23;;
4547;SDS011;2286;51.570;7.090;2023-09-18T10:13:07;3.23;;;1.50;;
4547;SDS011;2286;51.570;7.090;2023-09-18T10:15:37;2.23;;;1.10;;
4547;SDS011;2286;51.570;7.090;2023-09-18T10:18:10;3.40;;;2.13;;
4547;SDS011;2286;51.570;7.090;2023-09-18T10:20:52;2.60;;;1.40;;
4547;SDS011;2286;51.570;7.090;2023-09-18T10:23:27;1.93;;;1.50;;
4547;SDS011;2286;51.570;7.090;2023-09-18T10:26:04;6.40;;;2.00;;
4547;SDS011;2286;51.570;7.090;2023-09-18T10:28:34;2.50;;;1.50;;
4547;SDS011;2286;51.570;7.090;2023-09-18T10:31:03;2.50;;;1.70;;
4547;SDS011;2286;51.570;7.090;2023-09-18T10:33:31;4.17;;;1.73;;
4547;SDS011;2286;51.570;7.090;2023-09-18T10:35:59;2.00;;;1.50;;
4547;SDS011;2286;51.570;7.090;2023-09-18T10:38:29;2.27;;;1.20;;
4547;SDS011;2286;51.570;7.090;2023-09-18T10:40:57;2.20;;;1.40;;
4547;SDS011;2286;51.570;7.090;2023-09-18T10:43:25;1.97;;;1.20;;
4547;SDS011;2286;51.570;7.090;2023-09-18T10:45:54;1.87;;;1.73;;
4547;SDS011;2286;51.570;7.090;2023-09-18T10:48:21;2.23;;;1.57;;
4547;SDS011;2286;51.570;7.090;2023-09-18T10:50:50;2.77;;;1.47;;
4547;SDS011;2286;51.570;7.090;2023-09-18T10:53:18;3.90;;;1.57;;
4547;SDS011;2286;51.570;7.090;2023-09-18T10:55:46;1.53;;;1.10;;
4547;SDS011;2286;51.570;7.090;2023-09-18T10:58:22;2.23;;;1.37;;
4547;SDS011;2286;51.570;7.090;2023-09-18T11:00:51;2.97;;;1.53;;
4547;SDS011;2286;51.570;7.090;2023-09-18T11:03:22;3.13;;;1.63;;
4547;SDS011;2286;51.570;7.090;2023-09-18T11:06:01;2.73;;;1.40;;
4547;SDS011;2286;51.570;7.090;2023-09-18T11:08:30;2.40;;;1.60;;
4547;SDS011;2286;51.570;7.090;2023-09-18T11:11:00;3.50;;;1.57;;
4547;SDS011;2286;51.570;7.090;2023-09-18T11:13:34;3.60;;;1.60;;
4547;SDS011;2286;51.570;7.090;2023-09-18T11:16:13;2.00;;;1.43;;
4547;SDS011;2286;51.570;7.090;2023-09-18T11:18:51;2.27;;;1.60;;
4547;SDS011;2286;51.570;7.090;2023-09-18T11:21:23;3.47;;;1.60;;
4547;SDS011;2286;51.570;7.090;2023-09-18T11:23:57;2.83;;;1.70;;
4547;SDS011;2286;51.570;7.090;2023-09-18T11:26:28;3.60;;;1.60;;
4547;SDS011;2286;51.570;7.090;2023-09-18T11:28:56;2.30;;;1.60;;
4547;SDS011;2286;51.570;7.090;2023-09-18T11:34:16;1.80;;;1.70;;
4547;SDS011;2286;51.570;7.090;2023-09-18T11:36:46;2.60;;;1.57;;
4547;SDS011;2286;51.570;7.090;2023-09-18T11:39:14;3.30;;;1.70;;
4547;SDS011;2286;51.570;7.090;2023-09-18T11:42:06;2.03;;;1.80;;
4547;SDS011;2286;51.570;7.090;2023-09-18T11:44:35;3.53;;;1.37;;
4547;SDS011;2286;51.570;7.090;2023-09-18T11:47:06;4.07;;;1.73;;
4547;SDS011;2286;51.570;7.090;2023-09-18T11:49:49;6.17;;;2.13;;
4547;SDS011;2286;51.570;7.090;2023-09-18T11:52:20;3.30;;;1.90;;
4547;SDS011;2286;51.570;7.090;2023-09-18T11:54:48;5.60;;;1.73;;
4547;SDS011;2286;51.570;7.090;2023-09-18T11:57:16;4.40;;;1.70;;
4547;SDS011;2286;51.570;7.090;2023-09-18T11:59:44;2.27;;;1.73;;
4547;SDS011;2286;51.570;7.090;2023-09-18T12:02:12;2.37;;;2.00;;
4547;SDS011;2286;51.570;7.090;2023-09-18T12:04:48;2.30;;;1.80;;
4547;SDS011;2286;51.570;7.090;2023-09-18T12:07:15;3.33;;;1.80;;
4547;SDS011;2286;51.570;7.090;2023-09-18T12:09:44;1.77;;;1.67;;
4547;SDS011;2286;51.570;7.090;2023-09-18T12:12:11;3.00;;;2.37;;
4547;SDS011;2286;51.570;7.090;2023-09-18T12:14:39;4.90;;;1.93;;
4547;SDS011;2286;51.570;7.090;2023-09-18T12:17:07;3.30;;;1.67;;
4547;SDS011;2286;51.570;7.090;2023-09-18T12:19:34;4.23;;;1.97;;
4547;SDS011;2286;51.570;7.090;2023-09-18T12:22:03;3.67;;;1.90;;
4547;SDS011;2286;51.570;7.090;2023-09-18T12:24:30;2.97;;;1.40;;
4547;SDS011;2286;51.570;7.090;2023-09-18T12:26:57;5.97;;;2.67;;
4547;SDS011;2286;51.570;7.090;2023-09-18T12:29:25;2.60;;;1.80;;
4547;SDS011;2286;51.570;7.090;2023-09-18T12:31:52;1.73;;;1.63;;
4547;SDS011;2286;51.570;7.090;2023-09-18T12:34:20;3.80;;;1.77;;
4547;SDS011;2286;51.570;7.090;2023-09-18T12:36:48;3.30;;;1.97;;
4547;SDS011;2286;51.570;7.090;2023-09-18T12:39:18;5.27;;;2.00;;
4547;SDS011;2286;51.570;7.090;2023-09-18T12:41:47;3.47;;;1.67;;
4547;SDS011;2286;51.570;7.090;2023-09-18T12:44:14;2.70;;;1.50;;
4547;SDS011;2286;51.570;7.090;2023-09-18T12:46:42;5.37;;;1.60;;
4547;SDS011;2286;51.570;7.090;2023-09-18T12:49:17;3.17;;;1.50;;
4547;SDS011;2286;51.570;7.090;2023-09-18T12:51:53;5.17;;;1.63;;
4547;SDS011;2286;51.570;7.090;2023-09-18T12:54:37;2.20;;;1.83;;
4547;SDS011;2286;51.570;7.090;2023-09-18T12:57:05;4.63;;;1.90;;
4547;SDS011;2286;51.570;7.090;2023-09-18T12:59:34;2.23;;;1.60;;
4547;SDS011;2286;51.570;7.090;2023-09-18T13:02:03;2.67;;;1.93;;
4547;SDS011;2286;51.570;7.090;2023-09-18T13:04:30;2.33;;;1.87;;
4547;SDS011;2286;51.570;7.090;2023-09-18T13:07:09;3.67;;;2.10;;
4547;SDS011;2286;51.570;7.090;2023-09-18T13:09:39;1.90;;;1.70;;
4547;SDS011;2286;51.570;7.090;2023-09-18T13:12:06;3.60;;;2.17;;
4547;SDS011;2286;51.570;7.090;2023-09-18T13:17:23;1.53;;;1.30;;
4547;SDS011;2286;51.570;7.090;2023-09-18T13:19:50;2.40;;;1.50;;
4547;SDS011;2286;51.570;7.090;2023-09-18T13:22:21;2.43;;;1.63;;
4547;SDS011;2286;51.570;7.090;2023-09-18T13:24:56;3.07;;;2.20;;
4547;SDS011;2286;51.570;7.090;2023-09-18T13:27:24;3.80;;;1.90;;
4547;SDS011;2286;51.570;7.090;2023-09-18T13:29:51;4.57;;;1.60;;
4547;SDS011;2286;51.570;7.090;2023-09-18T13:32:19;2.03;;;1.83;;
4547;SDS011;2286;51.570;7.090;2023-09-18T13:34:47;2.10;;;1.57;;
4547;SDS011;2286;51.570;7.090;2023-09-18T13:37:14;2.47;;;1.67;;
4547;SDS011;2286;51.570;7.090;2023-09-18T13:39:42;4.03;;;1.63;;
4547;SDS011;2286;51.570;7.090;2023-09-18T13:42:12;3.97;;;2.10;;
4547;SDS011;2286;51.570;7.090;2023-09-18T13:44:39;1.80;;;1.50;;
4547;SDS011;2286;51.570;7.090;2023-09-18T13:47:06;3.07;;;2.00;;
4547;SDS011;2286;51.570;7.090;2023-09-18T13:49:33;5.80;;;2.00;;
4547;SDS011;2286;51.570;7.090;2023-09-18T13:52:00;7.30;;;1.70;;
4547;SDS011;2286;51.570;7.090;2023-09-18T13:54:27;2.13;;;1.80;;
4547;SDS011;2286;51.570;7.090;2023-09-18T13:56:54;5.47;;;2.07;;
4547;SDS011;2286;51.570;7.090;2023-09-18T13:59:23;2.60;;;1.57;;
4547;SDS011;2286;51.570;7.090;2023-09-18T14:01:50;3.17;;;1.80;;
4547;SDS011;2286;51.570;7.090;2023-09-18T14:04:17;2.70;;;1.70;;
4547;SDS011;2286;51.570;7.090;2023-09-18T14:06:44;3.00;;;1.80;;
4547;SDS011;2286;51.570;7.090;2023-09-18T14:09:11;4.70;;;1.70;;
4547;SDS011;2286;51.570;7.090;2023-09-18T14:11:38;1.53;;;1.43;;
4547;SDS011;2286;51.570;7.090;2023-09-18T14:14:05;5.23;;;1.73;;
4547;SDS011;2286;51.570;7.090;2023-09-18T14:16:34;2.67;;;1.57;;
4547;SDS011;2286;51.570;7.090;2023-09-18T14:19:01;7.60;;;1.70;;
4547;SDS011;2286;51.570;7.090;2023-09-18T14:21:28;5.60;;;1.97;;
4547;SDS011;2286;51.570;7.090;2023-09-18T14:23:57;4.07;;;1.93;;
4547;SDS011;2286;51.570;7.090;2023-09-18T14:26:24;5.50;;;1.70;;
4547;SDS011;2286;51.570;7.090;2023-09-18T14:28:52;3.20;;;1.67;;
4547;SDS011;2286;51.570;7.090;2023-09-18T14:31:19;2.00;;;1.80;;
4547;SDS011;2286;51.570;7.090;2023-09-18T14:33:47;2.93;;;1.87;;
4547;SDS011;2286;51.570;7.090;2023-09-18T14:36:14;2.60;;;1.47;;
4547;SDS011;2286;51.570;7.090;2023-09-18T14:38:41;3.90;;;2.00;;
4547;SDS011;2286;51.570;7.090;2023-09-18T14:41:08;3.20;;;1.60;;
4547;SDS011;2286;51.570;7.090;2023-09-18T14:43:35;3.00;;;1.70;;
4547;SDS011;2286;51.570;7.090;2023-09-18T14:46:02;6.10;;;2.17;;
4547;SDS011;2286;51.570;7.090;2023-09-18T14:48:29;5.03;;;1.70;;
4547;SDS011;2286;51.570;7.090;2023-09-18T14:50:59;4.33;;;1.53;;
4547;SDS011;2286;51.570;7.090;2023-09-18T14:53:26;1.70;;;1.53;;
4547;SDS011;2286;51.570;7.090;2023-09-18T14:55:53;2.20;;;1.93;;
4547;SDS011;2286;51.570;7.090;2023-09-18T14:58:21;5.27;;;1.90;;
4547;SDS011;2286;51.570;7.090;2023-09-18T15:00:48;4.60;;;1.73;;
4547;SDS011;2286;51.570;7.090;2023-09-18T15:03:15;3.67;;;1.80;;
4547;SDS011;2286;51.570;7.090;2023-09-18T15:05:43;3.40;;;1.77;;
4547;SDS011;2286;51.570;7.090;2023-09-18T15:08:12;2.33;;;1.60;;
4547;SDS011;2286;51.570;7.090;2023-09-18T15:10:40;3.83;;;1.87;;
4547;SDS011;2286;51.570;7.090;2023-09-18T15:13:07;2.50;;;1.60;;
4547;SDS011;2286;51.570;7.090;2023-09-18T15:15:34;2.90;;;1.80;;
4547;SDS011;2286;51.570;7.090;2023-09-18T15:18:02;2.53;;;1.50;;
4547;SDS011;2286;51.570;7.090;2023-09-18T15:20:29;2.23;;;1.70;;
4547;SDS011;2286;51.570;7.090;2023-09-18T15:22:56;6.37;;;1.80;;
4547;SDS011;2286;51.570;7.090;2023-09-18T15:25:25;3.67;;;1.87;;